sensor_id;sensor_type;location;lat;lon;timestamp;P1;durP1;ratioP1;P2;durP2;ratioP2
15082;SDS011;7640;53.116;6.878;2023-06-04T00:00:05;7.13;;;4.77;;
15082;SDS011;7640;53.116;6.878;2023-06-04T00:02:35;11.17;;;4.97;;
15082;SDS011;7640;53.116;6.878;2023-06-04T00:05:04;9.20;;;4.80;;
15082;SDS011;7640;53.116;6.878;2023-06-04T00:07:35;7.97;;;4.50;;
15082;SDS011;7640;53.116;6.878;2023-06-04T00:10:04;9.23;;;5.13;;
15082;SDS011;7640;53.116;6.878;2023-06-04T00:12:34;8.47;;;4.87;;
15082;SDS011;7640;53.116;6.878;2023-06-04T00:15:02;11.30;;;5.27;;
15082;SDS011;7640;53.116;6.878;2023-06-04T00:17:32;7.37;;;4.20;;
15082;SDS011;7640;53.116;6.878;2023-06-04T00:20:01;9.70;;;5.60;;
15082;SDS011;7640;53.116;6.878;2023-06-04T00:22:29;10.13;;;5.13;;
15082;SDS011;7640;53.116;6.878;2023-06-04T00:24:59;8.80;;;5.23;;
15082;SDS011;7640;53.116;6.878;2023-06-04T00:27:28;9.00;;;5.43;;
15082;SDS011;7640;53.116;6.878;2023-06-04T00:29:57;12.33;;;5.30;;
15082;SDS011;7640;53.116;6.878;2023-06-04T00:32:26;9.23;;;5.60;;
15082;SDS011;7640;53.116;6.878;2023-06-04T00:34:55;8.57;;;5.07;;
15082;SDS011;7640;53.116;6.878;2023-06-04T00:37:24;8.80;;;5.17;;
15082;SDS011;7640;53.116;6.878;2023-06-04T00:39:56;11.40;;;5.77;;
15082;SDS011;7640;53.116;6.878;2023-06-04T00:42:26;7.90;;;5.03;;
15082;SDS011;7640;53.116;6.878;2023-06-04T00:44:55;8.77;;;5.50;;
15082;SDS011;7640;53.116;6.878;2023-06-04T00:47:24;11.53;;;5.40;;
15082;SDS011;7640;53.116;6.878;2023-06-04T00:49:53;8.73;;;5.87;;
15082;SDS011;7640;53.116;6.878;2023-06-04T00:52:25;10.97;;;5.73;;
15082;SDS011;7640;53.116;6.878;2023-06-04T00:54:54;10.17;;;6.60;;
15082;SDS011;7640;53.116;6.878;2023-06-04T00:57:23;10.77;;;6.10;;
15082;SDS011;7640;53.116;6.878;2023-06-04T00:59:53;11.73;;;6.27;;
15082;SDS011;7640;53.116;6.878;2023-06-04T01:02:22;10.83;;;5.97;;
15082;SDS011;7640;53.116;6.878;2023-06-04T01:04:54;11.97;;;6.70;;
15082;SDS011;7640;53.116;6.878;2023-06-04T01:07:31;10.60;;;6.20;;
15082;SDS011;7640;53.116;6.878;2023-06-04T01:09:59;8.77;;;5.93;;
15082;SDS011;7640;53.116;6.878;2023-06-04T01:12:28;14.27;;;6.27;;
15082;SDS011;7640;53.116;6.878;2023-06-04T01:14:58;9.67;;;6.27;;
15082;SDS011;7640;53.116;6.878;2023-06-04T01:17:28;11.27;;;6.53;;
15082;SDS011;7640;53.116;6.878;2023-06-04T01:22:59;10.70;;;5.83;;
15082;SDS011;7640;53.116;6.878;2023-06-04T01:26:00;13.83;;;6.80;;
15082;SDS011;7640;53.116;6.878;2023-06-04T01:28:30;9.53;;;5.97;;
15082;SDS011;7640;53.116;6.878;2023-06-04T01:31:04;11.27;;;6.43;;
15082;SDS011;7640;53.116;6.878;2023-06-04T01:33:34;14.37;;;6.43;;
15082;SDS011;7640;53.116;6.878;2023-06-04T01:36:03;12.70;;;6.70;;
15082;SDS011;7640;53.116;6.878;2023-06-04T01:38:32;12.93;;;7.30;;
15082;SDS011;7640;53.116;6.878;2023-06-04T01:41:01;14.67;;;6.93;;
15082;SDS011;7640;53.116;6.878;2023-06-04T01:43:29;10.47;;;6.50;;
15082;SDS011;7640;53.116;6.878;2023-06-04T01:46:01;12.03;;;6.90;;
15082;SDS011;7640;53.116;6.878;2023-06-04T01:48:31;12.83;;;7.63;;
15082;SDS011;7640;53.116;6.878;2023-06-04T01:51:00;12.83;;;7.33;;
15082;SDS011;7640;53.116;6.878;2023-06-04T01:53:29;15.03;;;7.33;;
15082;SDS011;7640;53.116;6.878;2023-06-04T01:55:58;12.70;;;7.27;;
15082;SDS011;7640;53.116;6.878;2023-06-04T01:58:27;13.80;;;8.07;;
15082;SDS011;7640;53.116;6.878;2023-06-04T02:00:58;15.30;;;7.50;;
15082;SDS011;7640;53.116;6.878;2023-06-04T02:03:31;14.77;;;7.27;;
15082;SDS011;7640;53.116;6.878;2023-06-04T02:06:03;12.40;;;7.37;;
15082;SDS011;7640;53.116;6.878;2023-06-04T02:08:34;12.37;;;7.40;;
15082;SDS011;7640;53.116;6.878;2023-06-04T02:11:03;10.63;;;6.73;;
15082;SDS011;7640;53.116;6.878;2023-06-04T02:13:32;15.90;;;8.30;;
15082;SDS011;7640;53.116;6.878;2023-06-04T02:16:01;15.10;;;8.23;;
15082;SDS011;7640;53.116;6.878;2023-06-04T02:18:31;14.83;;;8.60;;
15082;SDS011;7640;53.116;6.878;2023-06-04T02:21:01;11.57;;;7.57;;
15082;SDS011;7640;53.116;6.878;2023-06-04T02:23:30;15.67;;;7.43;;
15082;SDS011;7640;53.116;6.878;2023-06-04T02:25:59;11.80;;;7.73;;
15082;SDS011;7640;53.116;6.878;2023-06-04T02:28:28;18.40;;;8.27;;
15082;SDS011;7640;53.116;6.878;2023-06-04T02:30:56;14.97;;;8.00;;
15082;SDS011;7640;53.116;6.878;2023-06-04T02:33:25;15.40;;;8.40;;
15082;SDS011;7640;53.116;6.878;2023-06-04T02:35:55;16.10;;;9.07;;
15082;SDS011;7640;53.116;6.878;2023-06-04T02:38:24;12.13;;;7.20;;
15082;SDS011;7640;53.116;6.878;2023-06-04T02:40:52;15.37;;;8.23;;
15082;SDS011;7640;53.116;6.878;2023-06-04T02:43:21;10.80;;;8.03;;
15082;SDS011;7640;53.116;6.878;2023-06-04T02:45:50;12.70;;;8.30;;
15082;SDS011;7640;53.116;6.878;2023-06-04T02:48:18;11.67;;;7.63;;
15082;SDS011;7640;53.116;6.878;2023-06-04T02:50:47;13.67;;;8.17;;
15082;SDS011;7640;53.116;6.878;2023-06-04T02:53:17;13.67;;;8.27;;
15082;SDS011;7640;53.116;6.878;2023-06-04T02:55:47;14.90;;;8.63;;
15082;SDS011;7640;53.116;6.878;2023-06-04T02:58:17;13.93;;;8.67;;
15082;SDS011;7640;53.116;6.878;2023-06-04T03:00:48;16.83;;;9.23;;
15082;SDS011;7640;53.116;6.878;2023-06-04T03:03:16;15.40;;;8.43;;
15082;SDS011;7640;53.116;6.878;2023-06-04T03:05:45;16.23;;;9.60;;
15082;SDS011;7640;53.116;6.878;2023-06-04T03:08:14;14.50;;;9.23;;
15082;SDS011;7640;53.116;6.878;2023-06-04T03:10:44;15.40;;;8.70;;
15082;SDS011;7640;53.116;6.878;2023-06-04T03:13:13;12.70;;;7.60;;
15082;SDS011;7640;53.116;6.878;2023-06-04T03:15:41;13.87;;;8.67;;
15082;SDS011;7640;53.116;6.878;2023-06-04T03:18:11;13.70;;;8.77;;
15082;SDS011;7640;53.116;6.878;2023-06-04T03:20:39;16.87;;;9.10;;
15082;SDS011;7640;53.116;6.878;2023-06-04T03:23:08;13.50;;;8.10;;
15082;SDS011;7640;53.116;6.878;2023-06-04T03:25:38;14.53;;;7.93;;
15082;SDS011;7640;53.116;6.878;2023-06-04T03:28:06;18.53;;;8.97;;
15082;SDS011;7640;53.116;6.878;2023-06-04T03:30:35;10.93;;;8.07;;
15082;SDS011;7640;53.116;6.878;2023-06-04T03:33:04;15.47;;;9.00;;
15082;SDS011;7640;53.116;6.878;2023-06-04T03:35:32;16.83;;;9.03;;
15082;SDS011;7640;53.116;6.878;2023-06-04T03:38:04;14.10;;;9.03;;
15082;SDS011;7640;53.116;6.878;2023-06-04T03:40:32;17.13;;;9.50;;
15082;SDS011;7640;53.116;6.878;2023-06-04T03:43:02;12.20;;;8.63;;
15082;SDS011;7640;53.116;6.878;2023-06-04T03:45:31;12.33;;;8.57;;
15082;SDS011;7640;53.116;6.878;2023-06-04T03:47:59;15.07;;;9.03;;
15082;SDS011;7640;53.116;6.878;2023-06-04T03:50:28;14.03;;;8.80;;
15082;SDS011;7640;53.116;6.878;2023-06-04T03:52:57;17.87;;;9.43;;
15082;SDS011;7640;53.116;6.878;2023-06-04T03:55:26;17.00;;;9.43;;
15082;SDS011;7640;53.116;6.878;2023-06-04T03:57:58;16.83;;;9.67;;
15082;SDS011;7640;53.116;6.878;2023-06-04T04:00:28;18.70;;;10.70;;
15082;SDS011;7640;53.116;6.878;2023-06-04T04:02:57;14.07;;;10.10;;
15082;SDS011;7640;53.116;6.878;2023-06-04T04:05:26;15.93;;;9.37;;
15082;SDS011;7640;53.116;6.878;2023-06-04T04:07:54;18.57;;;10.70;;
15082;SDS011;7640;53.116;6.878;2023-06-04T04:10:23;12.70;;;9.67;;
15082;SDS011;7640;53.116;6.878;2023-06-04T04:12:52;17.00;;;11.30;;
15082;SDS011;7640;53.116;6.878;2023-06-04T04:15:21;13.27;;;9.40;;
15082;SDS011;7640;53.116;6.878;2023-06-04T04:17:51;14.10;;;9.63;;
15082;SDS011;7640;53.116;6.878;2023-06-04T04:20:23;15.70;;;10.83;;
15082;SDS011;7640;53.116;6.878;2023-06-04T04:22:52;17.33;;;11.37;;
15082;SDS011;7640;53.116;6.878;2023-06-04T04:25:21;15.87;;;11.53;;
15082;SDS011;7640;53.116;6.878;2023-06-04T04:27:50;20.90;;;12.27;;
15082;SDS011;7640;53.116;6.878;2023-06-04T04:30:20;22.63;;;13.47;;
15082;SDS011;7640;53.116;6.878;2023-06-04T04:32:49;17.93;;;11.80;;
15082;SDS011;7640;53.116;6.878;2023-06-04T04:35:19;17.47;;;12.57;;
15082;SDS011;7640;53.116;6.878;2023-06-04T04:37:50;20.57;;;12.67;;
15082;SDS011;7640;53.116;6.878;2023-06-04T04:40:19;18.43;;;12.23;;
15082;SDS011;7640;53.116;6.878;2023-06-04T04:42:48;16.47;;;11.33;;
15082;SDS011;7640;53.116;6.878;2023-06-04T04:45:17;22.83;;;11.67;;
15082;SDS011;7640;53.116;6.878;2023-06-04T04:47:46;17.90;;;11.23;;
15082;SDS011;7640;53.116;6.878;2023-06-04T04:50:17;19.87;;;11.17;;
15082;SDS011;7640;53.116;6.878;2023-06-04T04:52:45;18.03;;;10.73;;
15082;SDS011;7640;53.116;6.878;2023-06-04T04:55:14;18.27;;;11.00;;
15082;SDS011;7640;53.116;6.878;2023-06-04T04:57:42;19.33;;;10.37;;
15082;SDS011;7640;53.116;6.878;2023-06-04T05:00:11;20.40;;;11.50;;
15082;SDS011;7640;53.116;6.878;2023-06-04T05:02:42;19.43;;;11.50;;
15082;SDS011;7640;53.116;6.878;2023-06-04T05:05:10;17.37;;;10.77;;
15082;SDS011;7640;53.116;6.878;2023-06-04T05:07:41;19.87;;;10.80;;
15082;SDS011;7640;53.116;6.878;2023-06-04T05:10:10;16.30;;;10.50;;
15082;SDS011;7640;53.116;6.878;2023-06-04T05:12:39;17.87;;;10.77;;
15082;SDS011;7640;53.116;6.878;2023-06-04T05:15:18;16.73;;;10.50;;
15082;SDS011;7640;53.116;6.878;2023-06-04T05:17:47;18.13;;;9.30;;
15082;SDS011;7640;53.116;6.878;2023-06-04T05:20:16;17.80;;;9.60;;
15082;SDS011;7640;53.116;6.878;2023-06-04T05:22:46;16.37;;;8.37;;
15082;SDS011;7640;53.116;6.878;2023-06-04T05:25:16;13.10;;;7.10;;
15082;SDS011;7640;53.116;6.878;2023-06-04T05:27:45;12.77;;;7.43;;
15082;SDS011;7640;53.116;6.878;2023-06-04T05:30:15;16.60;;;7.23;;
15082;SDS011;7640;53.116;6.878;2023-06-04T05:32:44;13.17;;;6.90;;
15082;SDS011;7640;53.116;6.878;2023-06-04T05:35:12;12.83;;;6.10;;
15082;SDS011;7640;53.116;6.878;2023-06-04T05:37:42;15.13;;;6.67;;
15082;SDS011;7640;53.116;6.878;2023-06-04T05:40:13;13.03;;;5.80;;
15082;SDS011;7640;53.116;6.878;2023-06-04T05:42:42;11.07;;;5.50;;
15082;SDS011;7640;53.116;6.878;2023-06-04T05:45:11;14.13;;;6.33;;
15082;SDS011;7640;53.116;6.878;2023-06-04T05:47:39;10.33;;;5.00;;
15082;SDS011;7640;53.116;6.878;2023-06-04T05:50:09;9.77;;;6.07;;
15082;SDS011;7640;53.116;6.878;2023-06-04T05:52:39;15.03;;;5.87;;
15082;SDS011;7640;53.116;6.878;2023-06-04T05:55:08;10.03;;;4.50;;
15082;SDS011;7640;53.116;6.878;2023-06-04T05:57:38;9.77;;;5.07;;
15082;SDS011;7640;53.116;6.878;2023-06-04T06:00:07;12.53;;;5.13;;
15082;SDS011;7640;53.116;6.878;2023-06-04T06:02:37;12.03;;;4.73;;
15082;SDS011;7640;53.116;6.878;2023-06-04T06:05:07;10.67;;;4.90;;
15082;SDS011;7640;53.116;6.878;2023-06-04T06:07:36;10.50;;;4.50;;
15082;SDS011;7640;53.116;6.878;2023-06-04T06:10:05;10.67;;;4.83;;
15082;SDS011;7640;53.116;6.878;2023-06-04T06:12:34;9.10;;;4.00;;
15082;SDS011;7640;53.116;6.878;2023-06-04T06:15:05;8.73;;;4.50;;
15082;SDS011;7640;53.116;6.878;2023-06-04T06:17:35;12.70;;;4.40;;
15082;SDS011;7640;53.116;6.878;2023-06-04T06:20:06;8.17;;;4.20;;
15082;SDS011;7640;53.116;6.878;2023-06-04T06:22:35;8.93;;;3.70;;
15082;SDS011;7640;53.116;6.878;2023-06-04T06:25:04;10.57;;;4.50;;
15082;SDS011;7640;53.116;6.878;2023-06-04T06:27:34;11.47;;;4.87;;
15082;SDS011;7640;53.116;6.878;2023-06-04T06:30:02;11.10;;;4.23;;
15082;SDS011;7640;53.116;6.878;2023-06-04T06:32:34;9.50;;;4.30;;
15082;SDS011;7640;53.116;6.878;2023-06-04T06:35:03;9.83;;;4.27;;
15082;SDS011;7640;53.116;6.878;2023-06-04T06:37:34;11.70;;;4.73;;
15082;SDS011;7640;53.116;6.878;2023-06-04T06:40:08;9.67;;;4.03;;
15082;SDS011;7640;53.116;6.878;2023-06-04T06:42:37;11.07;;;4.57;;
15082;SDS011;7640;53.116;6.878;2023-06-04T06:45:07;10.87;;;4.33;;
15082;SDS011;7640;53.116;6.878;2023-06-04T06:47:37;11.50;;;4.03;;
15082;SDS011;7640;53.116;6.878;2023-06-04T06:50:06;10.20;;;4.17;;
15082;SDS011;7640;53.116;6.878;2023-06-04T06:52:37;9.97;;;4.30;;
15082;SDS011;7640;53.116;6.878;2023-06-04T06:55:06;9.60;;;4.53;;
15082;SDS011;7640;53.116;6.878;2023-06-04T06:57:35;9.03;;;4.10;;
15082;SDS011;7640;53.116;6.878;2023-06-04T07:00:04;8.57;;;3.87;;
15082;SDS011;7640;53.116;6.878;2023-06-04T07:02:36;7.97;;;3.77;;
15082;SDS011;7640;53.116;6.878;2023-06-04T07:05:05;6.70;;;3.43;;
15082;SDS011;7640;53.116;6.878;2023-06-04T07:07:35;6.10;;;3.37;;
15082;SDS011;7640;53.116;6.878;2023-06-04T07:10:04;7.57;;;3.30;;
15082;SDS011;7640;53.116;6.878;2023-06-04T07:12:33;7.57;;;3.70;;
15082;SDS011;7640;53.116;6.878;2023-06-04T07:15:02;10.93;;;3.47;;
15082;SDS011;7640;53.116;6.878;2023-06-04T07:17:32;8.53;;;3.50;;
15082;SDS011;7640;53.116;6.878;2023-06-04T07:20:04;6.73;;;2.70;;
15082;SDS011;7640;53.116;6.878;2023-06-04T07:22:35;7.70;;;3.40;;
15082;SDS011;7640;53.116;6.878;2023-06-04T07:25:05;9.20;;;3.30;;
15082;SDS011;7640;53.116;6.878;2023-06-04T07:27:35;7.40;;;3.03;;
15082;SDS011;7640;53.116;6.878;2023-06-04T07:30:05;6.93;;;3.30;;
15082;SDS011;7640;53.116;6.878;2023-06-04T07:32:35;8.87;;;3.20;;
15082;SDS011;7640;53.116;6.878;2023-06-04T07:35:05;7.67;;;2.80;;
15082;SDS011;7640;53.116;6.878;2023-06-04T07:37:35;6.20;;;2.93;;
15082;SDS011;7640;53.116;6.878;2023-06-04T07:40:04;7.03;;;2.97;;
15082;SDS011;7640;53.116;6.878;2023-06-04T07:42:34;7.00;;;2.40;;
15082;SDS011;7640;53.116;6.878;2023-06-04T07:45:03;4.97;;;2.40;;
15082;SDS011;7640;53.116;6.878;2023-06-04T07:47:32;5.43;;;2.77;;
15082;SDS011;7640;53.116;6.878;2023-06-04T07:50:05;3.83;;;2.17;;
15082;SDS011;7640;53.116;6.878;2023-06-04T07:52:35;5.67;;;2.20;;
15082;SDS011;7640;53.116;6.878;2023-06-04T07:55:04;4.90;;;2.03;;
15082;SDS011;7640;53.116;6.878;2023-06-04T07:57:34;4.20;;;2.30;;
15082;SDS011;7640;53.116;6.878;2023-06-04T08:00:04;4.90;;;2.37;;
15082;SDS011;7640;53.116;6.878;2023-06-04T08:02:35;4.00;;;2.10;;
15082;SDS011;7640;53.116;6.878;2023-06-04T08:05:05;5.20;;;2.40;;
15082;SDS011;7640;53.116;6.878;2023-06-04T08:07:34;5.83;;;2.10;;
15082;SDS011;7640;53.116;6.878;2023-06-04T08:10:03;2.93;;;2.07;;
15082;SDS011;7640;53.116;6.878;2023-06-04T08:12:33;3.10;;;1.80;;
15082;SDS011;7640;53.116;6.878;2023-06-04T08:15:02;4.33;;;1.90;;
15082;SDS011;7640;53.116;6.878;2023-06-04T08:17:32;3.57;;;2.17;;
15082;SDS011;7640;53.116;6.878;2023-06-04T08:20:01;4.57;;;1.80;;
15082;SDS011;7640;53.116;6.878;2023-06-04T08:22:36;4.03;;;2.10;;
15082;SDS011;7640;53.116;6.878;2023-06-04T08:25:04;5.37;;;2.47;;
15082;SDS011;7640;53.116;6.878;2023-06-04T08:27:35;6.33;;;2.23;;
15082;SDS011;7640;53.116;6.878;2023-06-04T08:30:04;2.60;;;1.90;;
15082;SDS011;7640;53.116;6.878;2023-06-04T08:32:35;2.37;;;1.77;;
15082;SDS011;7640;53.116;6.878;2023-06-04T08:35:05;3.27;;;1.90;;
15082;SDS011;7640;53.116;6.878;2023-06-04T08:37:35;4.63;;;2.00;;
15082;SDS011;7640;53.116;6.878;2023-06-04T08:40:04;3.27;;;1.90;;
15082;SDS011;7640;53.116;6.878;2023-06-04T08:42:38;4.00;;;2.00;;
15082;SDS011;7640;53.116;6.878;2023-06-04T08:45:11;2.97;;;1.70;;
15082;SDS011;7640;53.116;6.878;2023-06-04T08:47:43;3.33;;;1.60;;
15082;SDS011;7640;53.116;6.878;2023-06-04T08:50:18;3.20;;;1.80;;
15082;SDS011;7640;53.116;6.878;2023-06-04T08:52:49;3.53;;;1.80;;
15082;SDS011;7640;53.116;6.878;2023-06-04T08:55:21;4.23;;;1.67;;
15082;SDS011;7640;53.116;6.878;2023-06-04T08:57:50;3.73;;;2.10;;
15082;SDS011;7640;53.116;6.878;2023-06-04T09:00:20;3.20;;;1.87;;
15082;SDS011;7640;53.116;6.878;2023-06-04T09:02:49;3.57;;;1.90;;
15082;SDS011;7640;53.116;6.878;2023-06-04T09:05:20;2.27;;;1.67;;
15082;SDS011;7640;53.116;6.878;2023-06-04T09:07:52;5.07;;;2.00;;
15082;SDS011;7640;53.116;6.878;2023-06-04T09:10:22;4.07;;;1.83;;
15082;SDS011;7640;53.116;6.878;2023-06-04T09:12:53;2.80;;;1.80;;
15082;SDS011;7640;53.116;6.878;2023-06-04T09:15:24;3.20;;;2.00;;
15082;SDS011;7640;53.116;6.878;2023-06-04T09:17:53;4.87;;;2.13;;
15082;SDS011;7640;53.116;6.878;2023-06-04T09:20:24;4.80;;;2.00;;
15082;SDS011;7640;53.116;6.878;2023-06-04T09:22:52;6.20;;;2.00;;
15082;SDS011;7640;53.116;6.878;2023-06-04T09:25:21;3.13;;;2.03;;
15082;SDS011;7640;53.116;6.878;2023-06-04T09:27:52;5.27;;;2.00;;
15082;SDS011;7640;53.116;6.878;2023-06-04T09:30:22;5.73;;;1.90;;
15082;SDS011;7640;53.116;6.878;2023-06-04T09:32:52;4.70;;;2.00;;
15082;SDS011;7640;53.116;6.878;2023-06-04T09:35:21;4.87;;;2.30;;
15082;SDS011;7640;53.116;6.878;2023-06-04T09:37:54;3.20;;;1.60;;
15082;SDS011;7640;53.116;6.878;2023-06-04T09:40:23;4.37;;;2.13;;
15082;SDS011;7640;53.116;6.878;2023-06-04T09:43:02;4.63;;;1.80;;
15082;SDS011;7640;53.116;6.878;2023-06-04T09:45:31;6.47;;;2.20;;
15082;SDS011;7640;53.116;6.878;2023-06-04T09:48:02;13.77;;;2.60;;
15082;SDS011;7640;53.116;6.878;2023-06-04T09:50:35;2.50;;;1.67;;
15082;SDS011;7640;53.116;6.878;2023-06-04T09:53:13;3.83;;;1.63;;
15082;SDS011;7640;53.116;6.878;2023-06-04T09:55:43;3.73;;;1.80;;
15082;SDS011;7640;53.116;6.878;2023-06-04T09:58:12;4.68;;;1.80;;
15082;SDS011;7640;53.116;6.878;2023-06-04T10:00:43;5.07;;;2.00;;
15082;SDS011;7640;53.116;6.878;2023-06-04T10:03:14;3.58;;;2.08;;
15082;SDS011;7640;53.116;6.878;2023-06-04T10:05:49;3.40;;;2.17;;
15082;SDS011;7640;53.116;6.878;2023-06-04T10:08:22;4.30;;;1.90;;
15082;SDS011;7640;53.116;6.878;2023-06-04T10:10:51;3.17;;;1.73;;
15082;SDS011;7640;53.116;6.878;2023-06-04T10:13:23;4.83;;;1.90;;
15082;SDS011;7640;53.116;6.878;2023-06-04T10:15:56;4.28;;;1.70;;
15082;SDS011;7640;53.116;6.878;2023-06-04T10:18:27;5.07;;;2.40;;
15082;SDS011;7640;53.116;6.878;2023-06-04T10:20:56;6.25;;;1.92;;
15082;SDS011;7640;53.116;6.878;2023-06-04T10:23:26;13.88;;;2.70;;
15082;SDS011;7640;53.116;6.878;2023-06-04T10:25:56;15.40;;;2.60;;
15082;SDS011;7640;53.116;6.878;2023-06-04T10:28:25;5.05;;;1.88;;
15082;SDS011;7640;53.116;6.878;2023-06-04T10:30:54;4.32;;;1.98;;
15082;SDS011;7640;53.116;6.878;2023-06-04T10:33:23;3.08;;;1.90;;
15082;SDS011;7640;53.116;6.878;2023-06-04T10:35:53;3.50;;;1.92;;
15082;SDS011;7640;53.116;6.878;2023-06-04T10:38:23;2.80;;;1.75;;
15082;SDS011;7640;53.116;6.878;2023-06-04T10:40:53;5.75;;;1.88;;
15082;SDS011;7640;53.116;6.878;2023-06-04T10:43:22;5.38;;;1.70;;
15082;SDS011;7640;53.116;6.878;2023-06-04T10:45:58;4.93;;;1.85;;
15082;SDS011;7640;53.116;6.878;2023-06-04T10:48:45;3.30;;;1.80;;
15082;SDS011;7640;53.116;6.878;2023-06-04T10:51:28;3.70;;;1.70;;
15082;SDS011;7640;53.116;6.878;2023-06-04T10:53:58;4.72;;;2.30;;
15082;SDS011;7640;53.116;6.878;2023-06-04T10:56:30;3.60;;;2.05;;
15082;SDS011;7640;53.116;6.878;2023-06-04T10:59:12;3.88;;;2.13;;
15082;SDS011;7640;53.116;6.878;2023-06-04T11:01:43;4.50;;;2.33;;
15082;SDS011;7640;53.116;6.878;2023-06-04T11:04:19;3.35;;;2.33;;
15082;SDS011;7640;53.116;6.878;2023-06-04T11:06:59;3.85;;;2.30;;
15082;SDS011;7640;53.116;6.878;2023-06-04T11:09:30;4.78;;;2.15;;
15082;SDS011;7640;53.116;6.878;2023-06-04T11:12:01;3.30;;;1.90;;
15082;SDS011;7640;53.116;6.878;2023-06-04T11:14:32;3.80;;;2.20;;
15082;SDS011;7640;53.116;6.878;2023-06-04T11:17:08;3.88;;;2.20;;
15082;SDS011;7640;53.116;6.878;2023-06-04T11:19:38;4.05;;;2.20;;
15082;SDS011;7640;53.116;6.878;2023-06-04T11:22:09;3.80;;;2.00;;
15082;SDS011;7640;53.116;6.878;2023-06-04T11:24:39;5.43;;;2.20;;
15082;SDS011;7640;53.116;6.878;2023-06-04T11:27:09;29.73;;;4.72;;
15082;SDS011;7640;53.116;6.878;2023-06-04T11:29:53;4.20;;;2.20;;
15082;SDS011;7640;53.116;6.878;2023-06-04T11:32:22;2.95;;;1.95;;
15082;SDS011;7640;53.116;6.878;2023-06-04T11:34:51;3.60;;;2.28;;
15082;SDS011;7640;53.116;6.878;2023-06-04T11:37:30;3.75;;;2.25;;
15082;SDS011;7640;53.116;6.878;2023-06-04T11:39:59;4.22;;;2.33;;
15082;SDS011;7640;53.116;6.878;2023-06-04T11:42:31;4.15;;;2.13;;
15082;SDS011;7640;53.116;6.878;2023-06-04T11:44:59;7.18;;;2.53;;
15082;SDS011;7640;53.116;6.878;2023-06-04T11:47:30;3.58;;;1.92;;
15082;SDS011;7640;53.116;6.878;2023-06-04T11:49:59;2.85;;;2.20;;
15082;SDS011;7640;53.116;6.878;2023-06-04T11:52:28;4.15;;;2.10;;
15082;SDS011;7640;53.116;6.878;2023-06-04T11:54:56;4.50;;;2.30;;
15082;SDS011;7640;53.116;6.878;2023-06-04T11:57:25;4.32;;;2.10;;
15082;SDS011;7640;53.116;6.878;2023-06-04T11:59:56;3.55;;;2.17;;
15082;SDS011;7640;53.116;6.878;2023-06-04T12:02:26;5.00;;;2.17;;
15082;SDS011;7640;53.116;6.878;2023-06-04T12:04:54;4.55;;;2.30;;
15082;SDS011;7640;53.116;6.878;2023-06-04T12:07:23;5.43;;;2.33;;
15082;SDS011;7640;53.116;6.878;2023-06-04T12:09:52;5.85;;;2.20;;
15082;SDS011;7640;53.116;6.878;2023-06-04T12:12:21;3.72;;;2.05;;
15082;SDS011;7640;53.116;6.878;2023-06-04T12:14:59;4.25;;;2.20;;
15082;SDS011;7640;53.116;6.878;2023-06-04T12:17:28;4.53;;;2.05;;
15082;SDS011;7640;53.116;6.878;2023-06-04T12:19:57;3.15;;;2.03;;
15082;SDS011;7640;53.116;6.878;2023-06-04T12:22:25;3.60;;;2.40;;
15082;SDS011;7640;53.116;6.878;2023-06-04T12:24:56;3.72;;;2.10;;
15082;SDS011;7640;53.116;6.878;2023-06-04T12:27:29;4.47;;;3.05;;
15082;SDS011;7640;53.116;6.878;2023-06-04T12:29:59;5.72;;;2.42;;
15082;SDS011;7640;53.116;6.878;2023-06-04T12:32:29;4.32;;;2.38;;
15082;SDS011;7640;53.116;6.878;2023-06-04T12:34:58;3.47;;;2.22;;
15082;SDS011;7640;53.116;6.878;2023-06-04T12:37:27;4.53;;;2.00;;
15082;SDS011;7640;53.116;6.878;2023-06-04T12:39:56;3.08;;;1.95;;
15082;SDS011;7640;53.116;6.878;2023-06-04T12:42:24;3.45;;;1.98;;
15082;SDS011;7640;53.116;6.878;2023-06-04T12:44:54;6.13;;;2.33;;
15082;SDS011;7640;53.116;6.878;2023-06-04T12:47:31;3.15;;;1.83;;
15082;SDS011;7640;53.116;6.878;2023-06-04T12:49:59;4.22;;;2.30;;
15082;SDS011;7640;53.116;6.878;2023-06-04T12:52:29;4.10;;;2.00;;
15082;SDS011;7640;53.116;6.878;2023-06-04T12:54:57;4.07;;;2.28;;
15082;SDS011;7640;53.116;6.878;2023-06-04T12:57:26;3.60;;;1.80;;
15082;SDS011;7640;53.116;6.878;2023-06-04T12:59:55;5.55;;;2.10;;
15082;SDS011;7640;53.116;6.878;2023-06-04T13:02:24;3.53;;;1.90;;
15082;SDS011;7640;53.116;6.878;2023-06-04T13:04:55;2.22;;;1.77;;
15082;SDS011;7640;53.116;6.878;2023-06-04T13:07:23;4.25;;;2.10;;
15082;SDS011;7640;53.116;6.878;2023-06-04T13:09:53;3.42;;;2.00;;
15082;SDS011;7640;53.116;6.878;2023-06-04T13:12:22;3.75;;;1.90;;
15082;SDS011;7640;53.116;6.878;2023-06-04T13:14:51;2.58;;;1.92;;
15082;SDS011;7640;53.116;6.878;2023-06-04T13:17:19;3.75;;;2.08;;
15082;SDS011;7640;53.116;6.878;2023-06-04T13:19:48;4.07;;;2.05;;
15082;SDS011;7640;53.116;6.878;2023-06-04T13:22:19;3.50;;;2.03;;
15082;SDS011;7640;53.116;6.878;2023-06-04T13:24:48;3.22;;;1.80;;
15082;SDS011;7640;53.116;6.878;2023-06-04T13:27:16;3.90;;;2.00;;
15082;SDS011;7640;53.116;6.878;2023-06-04T13:29:45;2.97;;;1.60;;
15082;SDS011;7640;53.116;6.878;2023-06-04T13:32:13;3.50;;;1.90;;
15082;SDS011;7640;53.116;6.878;2023-06-04T13:34:42;2.25;;;1.60;;
15082;SDS011;7640;53.116;6.878;2023-06-04T13:37:11;3.75;;;1.90;;
15082;SDS011;7640;53.116;6.878;2023-06-04T13:39:41;4.32;;;1.80;;
15082;SDS011;7640;53.116;6.878;2023-06-04T13:42:09;5.10;;;2.03;;
15082;SDS011;7640;53.116;6.878;2023-06-04T13:44:38;1.83;;;1.45;;
15082;SDS011;7640;53.116;6.878;2023-06-04T13:47:07;3.65;;;1.88;;
15082;SDS011;7640;53.116;6.878;2023-06-04T13:49:36;4.55;;;1.90;;
15082;SDS011;7640;53.116;6.878;2023-06-04T13:52:05;3.92;;;1.90;;
15082;SDS011;7640;53.116;6.878;2023-06-04T13:54:33;3.35;;;2.00;;
15082;SDS011;7640;53.116;6.878;2023-06-04T13:57:03;2.63;;;1.65;;
15082;SDS011;7640;53.116;6.878;2023-06-04T13:59:33;4.13;;;1.70;;
15082;SDS011;7640;53.116;6.878;2023-06-04T14:02:02;3.63;;;1.60;;
15082;SDS011;7640;53.116;6.878;2023-06-04T14:04:30;2.75;;;1.67;;
15082;SDS011;7640;53.116;6.878;2023-06-04T14:06:59;4.25;;;1.80;;
15082;SDS011;7640;53.116;6.878;2023-06-04T14:09:28;3.70;;;1.90;;
15082;SDS011;7640;53.116;6.878;2023-06-04T14:11:56;2.67;;;1.65;;
15082;SDS011;7640;53.116;6.878;2023-06-04T14:14:27;4.53;;;2.20;;
15082;SDS011;7640;53.116;6.878;2023-06-04T14:17:02;3.85;;;2.05;;
15082;SDS011;7640;53.116;6.878;2023-06-04T14:19:32;2.67;;;2.10;;
15082;SDS011;7640;53.116;6.878;2023-06-04T14:22:00;2.70;;;1.67;;
15082;SDS011;7640;53.116;6.878;2023-06-04T14:24:29;3.03;;;1.50;;
15082;SDS011;7640;53.116;6.878;2023-06-04T14:26:58;2.65;;;1.75;;
15082;SDS011;7640;53.116;6.878;2023-06-04T14:29:28;4.38;;;1.48;;
15082;SDS011;7640;53.116;6.878;2023-06-04T14:31:57;4.57;;;1.88;;
15082;SDS011;7640;53.116;6.878;2023-06-04T14:34:25;3.72;;;1.38;;
15082;SDS011;7640;53.116;6.878;2023-06-04T14:36:54;3.17;;;1.58;;
15082;SDS011;7640;53.116;6.878;2023-06-04T14:39:26;2.90;;;1.52;;
15082;SDS011;7640;53.116;6.878;2023-06-04T14:41:55;3.15;;;1.58;;
15082;SDS011;7640;53.116;6.878;2023-06-04T14:44:23;1.92;;;1.50;;
15082;SDS011;7640;53.116;6.878;2023-06-04T14:46:53;2.33;;;1.65;;
15082;SDS011;7640;53.116;6.878;2023-06-04T14:49:22;2.42;;;1.50;;
15082;SDS011;7640;53.116;6.878;2023-06-04T14:51:51;2.95;;;1.52;;
15082;SDS011;7640;53.116;6.878;2023-06-04T14:54:20;1.88;;;1.50;;
15082;SDS011;7640;53.116;6.878;2023-06-04T14:56:48;3.67;;;1.63;;
15082;SDS011;7640;53.116;6.878;2023-06-04T14:59:17;2.00;;;1.40;;
15082;SDS011;7640;53.116;6.878;2023-06-04T15:01:45;3.58;;;2.83;;
15082;SDS011;7640;53.116;6.878;2023-06-04T15:04:15;2.65;;;1.40;;
15082;SDS011;7640;53.116;6.878;2023-06-04T15:06:44;1.92;;;1.15;;
15082;SDS011;7640;53.116;6.878;2023-06-04T15:09:13;2.88;;;1.50;;
15082;SDS011;7640;53.116;6.878;2023-06-04T15:11:42;2.55;;;1.30;;
15082;SDS011;7640;53.116;6.878;2023-06-04T15:14:10;1.85;;;1.20;;